Time;durP1;ratioP1;P1;durP2;ratioP2;P2;SDS_P1;SDS_P2;PMS_P1;PMS_P2;Temp;Humidity;BMP_temperature;BMP_pressure;BME280_temperature;BME280_humidity;BME280_pressure;Samples;Min_cycle;Max_cycle;Signal;HPM_P1;HPM_P2
2023/08/14 00:01:26;;;;;;;3.37;2.70;;;17.20;99.90;;;;;;5060731;28;20186;-70
2023/08/14 00:03:51;;;;;;;3.83;2.80;;;17.20;99.90;;;;;;5053100;28;20178;-69
2023/08/14 00:06:17;;;;;;;4.30;3.20;;;17.30;99.90;;;;;;5059668;28;20175;-68
2023/08/14 00:08:43;;;;;;;3.90;3.20;;;17.30;99.90;;;;;;5071700;28;20489;-65
2023/08/14 00:11:09;;;;;;;2.70;2.50;;;17.30;99.90;;;;;;5072956;28;20193;-68
2023/08/14 00:13:54;;;;;;;8.47;3.53;;;17.40;99.90;;;;;;5062641;28;20659;-69
2023/08/14 00:16:20;;;;;;;3.97;2.77;;;17.40;99.90;;;;;;5055702;28;20182;-68
2023/08/14 00:18:46;;;;;;;4.40;3.70;;;17.40;99.90;;;;;;5052789;28;20480;-68
2023/08/14 00:21:12;;;;;;;3.97;3.10;;;17.50;99.90;;;;;;5057735;28;20512;-69
2023/08/14 00:23:38;;;;;;;5.47;3.63;;;17.50;99.90;;;;;;5071306;28;20189;-68
2023/08/14 00:26:04;;;;;;;6.30;3.27;;;17.50;99.90;;;;;;5071937;28;20170;-65
2023/08/14 00:28:29;;;;;;;3.80;3.50;;;17.50;99.90;;;;;;5064075;28;20460;-64
2023/08/14 00:30:55;;;;;;;3.70;2.90;;;17.50;99.90;;;;;;5055587;28;20444;-64
2023/08/14 00:33:21;;;;;;;6.17;3.40;;;17.50;99.90;;;;;;5052826;28;20186;-70
2023/08/14 00:35:46;;;;;;;3.83;3.53;;;17.50;99.90;;;;;;5050373;28;20555;-70
2023/08/14 00:38:12;;;;;;;8.03;2.83;;;17.60;99.90;;;;;;5072407;28;20241;-66
2023/08/14 00:40:39;;;;;;;6.97;3.63;;;17.60;99.90;;;;;;5071309;28;20162;-69
2023/08/14 00:43:04;;;;;;;3.40;3.10;;;17.60;99.90;;;;;;5052359;28;20171;-65
2023/08/14 00:45:31;;;;;;;3.63;3.20;;;17.60;99.90;;;;;;5056184;28;20489;-64
2023/08/14 00:47:57;;;;;;;3.63;3.43;;;17.60;99.90;;;;;;5052589;28;20237;-69
2023/08/14 00:50:23;;;;;;;3.17;2.97;;;17.60;99.90;;;;;;5052048;28;20455;-69
2023/08/14 00:52:54;;;;;;;6.10;3.83;;;17.60;99.90;;;;;;5065840;28;20488;-67
2023/08/14 00:55:22;;;;;;;3.30;3.10;;;17.60;99.90;;;;;;5075819;28;20451;-66
2023/08/14 00:57:50;;;;;;;3.40;2.87;;;17.60;99.90;;;;;;5076658;28;20502;-64
2023/08/14 01:00:16;;;;;;;4.87;3.50;;;17.60;99.90;;;;;;5071134;28;20436;-70
2023/08/14 01:02:43;;;;;;;6.00;3.90;;;17.60;99.90;;;;;;5055881;28;20829;-67
2023/08/14 01:05:10;;;;;;;5.83;3.90;;;17.60;99.90;;;;;;5055778;28;21002;-64
2023/08/14 01:07:36;;;;;;;3.93;3.53;;;17.60;99.90;;;;;;5066224;28;20492;-68
2023/08/14 01:10:03;;;;;;;6.37;3.80;;;17.60;99.90;;;;;;5076064;28;20836;-64
2023/08/14 01:12:38;;;;;;;3.43;2.90;;;17.60;99.90;;;;;;5076496;28;20905;-64
2023/08/14 01:15:09;;;;;;;3.30;2.90;;;17.60;99.90;;;;;;5059975;28;20496;-70
2023/08/14 01:17:36;;;;;;;4.47;3.83;;;17.50;99.90;;;;;;5074723;28;20475;-66
2023/08/14 01:20:04;;;;;;;3.63;3.30;;;17.50;99.90;;;;;;5076377;28;20766;-67
2023/08/14 01:23:05;;;;;;;5.00;2.70;;;17.50;99.90;;;;;;5074907;28;20538;-69
2023/08/14 01:25:37;;;;;;;5.57;3.20;;;17.40;99.90;;;;;;5075237;28;20418;-68
2023/08/14 01:28:04;;;;;;;3.80;3.33;;;17.40;99.90;;;;;;5073128;28;20428;-69
2023/08/14 01:30:30;;;;;;;3.80;3.60;;;17.30;99.90;;;;;;5055353;28;20433;-64
2023/08/14 01:32:56;;;;;;;3.33;3.00;;;17.30;99.90;;;;;;5073340;28;20770;-64
2023/08/14 01:35:29;;;;;;;5.23;2.93;;;17.30;99.90;;;;;;5072096;28;20443;-69
2023/08/14 01:38:18;;;;;;;4.37;3.30;;;17.30;99.90;;;;;;5068670;28;20229;-67
2023/08/14 01:40:56;;;;;;;3.17;2.87;;;17.20;99.90;;;;;;5075862;28;20400;-65
2023/08/14 01:43:26;;;;;;;5.53;2.90;;;17.20;99.90;;;;;;5071119;28;20494;-63
2023/08/14 01:45:54;;;;;;;3.30;3.10;;;17.10;99.90;;;;;;5054481;28;20433;-69
2023/08/14 01:48:23;;;;;;;3.57;3.27;;;17.10;99.90;;;;;;5059592;28;20506;-64
2023/08/14 01:50:51;;;;;;;3.93;3.07;;;17.00;99.90;;;;;;5070905;28;20511;-69
2023/08/14 01:53:17;;;;;;;5.23;3.17;;;17.00;99.90;;;;;;5075493;28;20812;-68
2023/08/14 01:55:43;;;;;;;4.17;3.40;;;16.90;99.90;;;;;;5074787;28;20495;-64
2023/08/14 01:58:09;;;;;;;3.07;2.77;;;16.90;99.90;;;;;;5075368;28;20865;-68
2023/08/14 02:00:36;;;;;;;3.83;3.60;;;16.80;99.90;;;;;;5055760;28;20491;-66
2023/08/14 02:03:02;;;;;;;3.93;2.77;;;16.80;99.90;;;;;;5055485;28;20293;-64
2023/08/14 02:05:27;;;;;;;3.47;3.17;;;16.70;99.90;;;;;;5053772;28;20860;-64
2023/08/14 02:07:53;;;;;;;3.23;3.00;;;16.70;99.90;;;;;;5070965;28;20452;-68
2023/08/14 02:10:19;;;;;;;5.30;2.67;;;16.60;99.90;;;;;;5058418;28;20225;-66
2023/08/14 02:12:45;;;;;;;4.07;3.77;;;16.60;99.90;;;;;;5055272;28;20414;-64
2023/08/14 02:15:11;;;;;;;4.70;3.37;;;16.60;99.90;;;;;;5059013;28;20265;-69
2023/08/14 02:17:36;;;;;;;3.07;2.87;;;16.50;99.90;;;;;;5053467;28;20202;-67
2023/08/14 02:20:02;;;;;;;3.90;3.20;;;16.50;99.90;;;;;;5055059;28;20242;-68
2023/08/14 02:22:28;;;;;;;5.07;3.20;;;16.50;99.90;;;;;;5065224;28;20178;-64
2023/08/14 02:24:54;;;;;;;4.83;3.83;;;16.50;99.90;;;;;;5055831;28;20667;-70
2023/08/14 02:27:20;;;;;;;6.27;3.60;;;16.50;99.90;;;;;;5057504;28;20202;-68
2023/08/14 02:29:46;;;;;;;3.30;3.00;;;16.40;99.90;;;;;;5066715;28;20174;-66
2023/08/14 02:32:12;;;;;;;3.50;3.13;;;16.30;99.90;;;;;;5054353;28;20190;-64
2023/08/14 02:34:47;;;;;;;3.50;3.20;;;16.30;99.90;;;;;;5053578;28;20430;-64
2023/08/14 02:37:13;;;;;;;5.63;3.73;;;16.30;99.90;;;;;;5059497;28;20470;-64
2023/08/14 02:39:39;;;;;;;4.20;3.80;;;16.30;99.90;;;;;;5074612;28;20405;-65
2023/08/14 02:42:05;;;;;;;5.00;4.10;;;16.30;99.90;;;;;;5074384;28;20491;-64
2023/08/14 02:44:31;;;;;;;4.30;4.00;;;16.30;99.90;;;;;;5072452;28;20993;-64
2023/08/14 02:46:57;;;;;;;8.57;4.37;;;16.30;99.90;;;;;;5057644;28;20199;-63
2023/08/14 02:49:23;;;;;;;7.00;4.50;;;16.30;99.90;;;;;;5054289;28;20178;-68
2023/08/14 02:51:50;;;;;;;7.20;3.93;;;16.30;99.90;;;;;;5064037;28;20446;-67
2023/08/14 02:54:16;;;;;;;4.93;4.10;;;16.30;99.90;;;;;;5074407;28;20560;-63
2023/08/14 02:56:41;;;;;;;5.20;4.10;;;16.40;99.90;;;;;;5060720;28;20433;-64
2023/08/14 02:59:07;;;;;;;10.97;4.23;;;16.40;99.90;;;;;;5053911;28;20198;-67
2023/08/14 03:01:33;;;;;;;6.50;4.50;;;16.40;99.90;;;;;;5053357;28;20195;-67
2023/08/14 03:03:58;;;;;;;4.47;4.03;;;16.50;99.90;;;;;;5054542;28;20225;-68
2023/08/14 03:06:24;;;;;;;4.93;4.47;;;16.50;99.90;;;;;;5065079;28;20186;-67
2023/08/14 03:08:52;;;;;;;4.80;4.00;;;16.40;99.90;;;;;;5059283;28;20198;-64
2023/08/14 03:11:18;;;;;;;5.73;4.10;;;16.50;99.90;;;;;;5054060;28;20667;-64
2023/08/14 03:13:43;;;;;;;5.27;3.97;;;16.50;99.90;;;;;;5054207;28;20405;-66
2023/08/14 03:16:09;;;;;;;4.50;3.80;;;16.50;99.90;;;;;;5052425;28;20182;-67
2023/08/14 03:18:35;;;;;;;4.77;4.20;;;16.40;99.90;;;;;;5053256;28;20211;-65
2023/08/14 03:21:00;;;;;;;5.87;4.80;;;16.40;99.90;;;;;;5053288;28;20175;-64
2023/08/14 03:23:26;;;;;;;10.93;5.40;;;16.40;99.90;;;;;;5052871;28;20627;-67
2023/08/14 03:25:52;;;;;;;6.43;5.20;;;16.30;99.90;;;;;;5052894;28;20244;-68
2023/08/14 03:28:17;;;;;;;6.03;5.20;;;16.40;99.90;;;;;;5053805;28;20195;-64
2023/08/14 03:30:43;;;;;;;5.83;4.87;;;16.30;99.90;;;;;;5054621;28;20185;-67
2023/08/14 03:33:09;;;;;;;8.53;5.10;;;16.30;99.90;;;;;;5053509;28;20187;-68
2023/08/14 03:35:35;;;;;;;5.53;5.03;;;16.30;99.90;;;;;;5072413;28;20409;-64
2023/08/14 03:38:01;;;;;;;8.10;5.03;;;16.20;99.90;;;;;;5067577;28;20519;-64
2023/08/14 03:40:27;;;;;;;6.50;5.23;;;16.20;99.90;;;;;;5053803;28;20898;-64
2023/08/14 03:42:53;;;;;;;7.17;5.10;;;16.10;99.90;;;;;;5052491;28;20178;-66
2023/08/14 03:45:19;;;;;;;4.90;4.27;;;16.10;99.90;;;;;;5050779;28;20186;-68
2023/08/14 03:47:44;;;;;;;10.53;5.50;;;16.10;99.90;;;;;;5052383;28;20198;-67
2023/08/14 03:50:10;;;;;;;5.40;4.90;;;16.00;99.90;;;;;;5053479;28;20209;-63
2023/08/14 03:52:36;;;;;;;5.60;5.10;;;16.00;99.90;;;;;;5053072;28;20181;-67
2023/08/14 03:55:01;;;;;;;4.70;4.40;;;16.00;99.90;;;;;;5052204;28;20202;-65
2023/08/14 03:57:27;;;;;;;5.13;4.40;;;16.00;99.90;;;;;;5052875;28;20203;-67
2023/08/14 03:59:53;;;;;;;6.07;5.00;;;15.90;99.90;;;;;;5052883;28;20213;-68
2023/08/14 04:02:19;;;;;;;4.60;4.20;;;15.90;99.90;;;;;;5062082;28;20948;-64
2023/08/14 04:04:45;;;;;;;7.17;4.53;;;15.90;99.90;;;;;;5073148;28;20261;-68
2023/08/14 04:07:10;;;;;;;4.20;3.83;;;15.90;99.90;;;;;;5072410;28;20265;-68
2023/08/14 04:09:36;;;;;;;8.60;3.77;;;15.90;99.90;;;;;;5072592;28;20182;-63
2023/08/14 04:12:02;;;;;;;4.77;3.70;;;15.80;99.90;;;;;;5062373;28;20621;-67
2023/08/14 04:14:29;;;;;;;5.03;4.40;;;15.80;99.90;;;;;;5051880;28;20182;-64
2023/08/14 04:16:55;;;;;;;3.97;3.03;;;15.80;99.90;;;;;;5061298;28;20174;-68
2023/08/14 04:19:22;;;;;;;5.20;4.23;;;15.80;99.90;;;;;;5054264;28;21015;-68
2023/08/14 04:21:49;;;;;;;7.63;4.27;;;15.80;99.90;;;;;;5052847;28;20444;-65
2023/08/14 04:24:14;;;;;;;4.07;3.70;;;15.80;99.90;;;;;;5052670;28;20429;-67
2023/08/14 04:26:40;;;;;;;3.73;3.43;;;15.80;99.90;;;;;;5051871;28;20414;-69
2023/08/14 04:29:07;;;;;;;6.27;3.90;;;15.90;99.90;;;;;;5051585;28;20250;-64
2023/08/14 04:31:37;;;;;;;5.60;3.87;;;15.90;99.90;;;;;;5058893;28;20162;-64
2023/08/14 04:34:03;;;;;;;4.83;4.43;;;16.00;99.90;;;;;;5052595;28;20439;-66
2023/08/14 04:36:34;;;;;;;3.97;3.67;;;16.00;99.90;;;;;;5057785;28;20507;-64
2023/08/14 04:39:00;;;;;;;6.40;3.67;;;16.00;99.90;;;;;;5072660;28;20467;-67
2023/08/14 04:41:27;;;;;;;5.23;4.77;;;16.00;99.90;;;;;;5072649;28;20393;-66
2023/08/14 04:43:53;;;;;;;10.43;5.13;;;16.10;99.90;;;;;;5072792;28;20395;-70
2023/08/14 04:46:31;;;;;;;6.07;3.93;;;16.00;99.90;;;;;;5057785;28;20434;-64
2023/08/14 04:48:57;;;;;;;9.83;4.00;;;16.10;99.90;;;;;;5051964;28;20460;-67
2023/08/14 04:51:23;;;;;;;4.70;3.83;;;16.10;99.90;;;;;;5062177;28;20463;-65
2023/08/14 04:53:49;;;;;;;4.60;4.10;;;16.20;99.90;;;;;;5072637;28;20448;-66
2023/08/14 04:56:14;;;;;;;5.63;3.93;;;16.20;99.90;;;;;;5071578;28;20201;-64
2023/08/14 04:58:40;;;;;;;5.27;4.47;;;16.30;99.90;;;;;;5069358;28;20209;-66
2023/08/14 05:01:06;;;;;;;6.43;4.57;;;16.30;99.90;;;;;;5062015;28;20262;-61
2023/08/14 05:03:32;;;;;;;7.53;4.57;;;16.40;99.90;;;;;;5060730;28;20177;-61
2023/08/14 05:05:57;;;;;;;5.00;3.90;;;16.50;99.90;;;;;;5061988;28;20434;-62
2023/08/14 05:08:23;;;;;;;8.30;4.80;;;16.50;99.90;;;;;;5055896;28;20198;-64
2023/08/14 05:10:50;;;;;;;5.50;4.10;;;16.50;99.90;;;;;;5062009;28;20234;-64
2023/08/14 05:13:17;;;;;;;8.73;4.57;;;16.50;99.90;;;;;;5072358;28;20657;-68
2023/08/14 05:15:43;;;;;;;5.80;4.37;;;16.60;99.90;;;;;;5066405;28;20432;-67
2023/08/14 05:18:08;;;;;;;5.37;4.23;;;16.60;99.90;;;;;;5052582;28;20464;-65
2023/08/14 05:20:34;;;;;;;5.33;3.43;;;16.70;99.90;;;;;;5052357;28;20210;-67
2023/08/14 05:23:00;;;;;;;10.67;4.23;;;16.80;99.90;;;;;;5051645;28;20194;-67
2023/08/14 05:25:26;;;;;;;5.07;4.30;;;16.80;99.90;;;;;;5051014;28;20401;-68
2023/08/14 05:27:51;;;;;;;5.63;3.57;;;16.90;99.90;;;;;;5051393;28;20191;-67
2023/08/14 05:30:17;;;;;;;3.87;3.57;;;16.90;99.90;;;;;;5052661;28;20646;-69
2023/08/14 05:32:46;;;;;;;7.03;3.60;;;17.00;99.90;;;;;;5070407;28;21660;-64
2023/08/14 05:35:12;;;;;;;5.10;3.80;;;17.00;99.90;;;;;;5060654;28;20173;-68
2023/08/14 05:37:39;;;;;;;4.60;4.07;;;17.00;99.90;;;;;;5052058;28;20445;-69
2023/08/14 05:40:06;;;;;;;6.20;4.40;;;17.10;99.90;;;;;;5069641;28;20436;-65
2023/08/14 05:42:32;;;;;;;4.13;3.83;;;17.10;99.90;;;;;;5075590;28;20889;-69
2023/08/14 05:44:57;;;;;;;4.70;4.30;;;17.20;99.90;;;;;;5064393;28;20431;-64
2023/08/14 05:47:23;;;;;;;6.00;3.80;;;17.20;99.90;;;;;;5054644;28;20202;-65
2023/08/14 05:49:48;;;;;;;3.77;3.43;;;17.20;99.90;;;;;;5055875;28;20175;-64
2023/08/14 05:52:14;;;;;;;7.57;4.53;;;17.30;99.90;;;;;;5054552;28;20171;-67
2023/08/14 05:54:40;;;;;;;4.77;3.93;;;17.30;99.90;;;;;;5055402;28;20236;-67
2023/08/14 05:57:06;;;;;;;4.47;3.90;;;17.40;99.90;;;;;;5054642;28;20191;-63
2023/08/14 05:59:32;;;;;;;4.00;3.60;;;17.40;99.90;;;;;;5067869;28;20193;-65
2023/08/14 06:01:58;;;;;;;4.30;4.00;;;17.50;99.90;;;;;;5075076;28;20173;-68
2023/08/14 06:04:25;;;;;;;4.13;3.80;;;17.60;99.90;;;;;;5075599;28;20777;-64
2023/08/14 06:06:51;;;;;;;4.87;4.17;;;17.60;99.90;;;;;;5074241;28;20166;-68
2023/08/14 06:09:17;;;;;;;5.13;4.70;;;17.70;99.90;;;;;;5074317;28;20432;-70
2023/08/14 06:11:43;;;;;;;8.30;3.80;;;17.80;99.90;;;;;;5075563;28;20277;-65
2023/08/14 06:14:09;;;;;;;15.97;4.60;;;17.90;99.90;;;;;;5056662;28;20464;-69
2023/08/14 06:16:34;;;;;;;4.73;3.93;;;17.90;99.90;;;;;;5054044;28;20539;-70
2023/08/14 06:19:00;;;;;;;4.37;4.07;;;18.00;99.90;;;;;;5064560;28;20212;-69
2023/08/14 06:21:26;;;;;;;4.33;4.03;;;18.10;99.90;;;;;;5075026;28;20173;-66
2023/08/14 06:23:52;;;;;;;5.40;3.80;;;18.10;99.90;;;;;;5075196;28;20228;-64
2023/08/14 06:26:18;;;;;;;6.50;4.30;;;18.20;99.90;;;;;;5071957;28;20208;-69
2023/08/14 06:28:43;;;;;;;6.03;4.07;;;18.30;99.90;;;;;;5054254;28;20199;-64
2023/08/14 06:31:09;;;;;;;6.77;4.20;;;18.30;99.90;;;;;;5054943;28;20440;-70
2023/08/14 06:33:35;;;;;;;8.63;6.23;;;18.40;99.90;;;;;;5054371;28;20190;-67
2023/08/14 06:36:00;;;;;;;6.93;4.03;;;18.50;99.90;;;;;;5053927;28;20628;-64
2023/08/14 06:38:27;;;;;;;6.03;3.60;;;18.60;99.90;;;;;;5053629;28;20241;-71
2023/08/14 06:40:52;;;;;;;4.47;3.73;;;18.60;99.90;;;;;;5054463;28;20159;-71
2023/08/14 06:43:19;;;;;;;4.07;3.30;;;18.70;99.90;;;;;;5054185;28;20929;-68
2023/08/14 06:45:46;;;;;;;6.20;4.07;;;18.80;99.90;;;;;;5052405;28;20216;-72
2023/08/14 06:48:12;;;;;;;7.20;4.20;;;18.90;99.90;;;;;;5054563;28;20425;-71
2023/08/14 06:50:38;;;;;;;6.70;3.53;;;18.90;99.90;;;;;;5053418;28;20975;-72
2023/08/14 06:53:04;;;;;;;6.20;3.77;;;19.10;99.90;;;;;;5053934;28;20519;-71
2023/08/14 06:55:29;;;;;;;5.70;3.87;;;19.10;99.90;;;;;;5060057;28;20209;-72
2023/08/14 06:57:55;;;;;;;6.73;3.37;;;19.20;99.90;;;;;;5073154;28;20202;-72
2023/08/14 07:00:21;;;;;;;6.00;3.47;;;19.30;99.90;;;;;;5074522;28;20170;-66
2023/08/14 07:02:47;;;;;;;3.67;3.37;;;19.30;99.90;;;;;;5074345;28;20162;-69
2023/08/14 07:05:13;;;;;;;4.93;3.27;;;19.40;99.90;;;;;;5073271;28;20407;-72
2023/08/14 07:07:39;;;;;;;5.27;3.80;;;19.40;99.90;;;;;;5074222;28;20548;-71
2023/08/14 07:10:06;;;;;;;4.67;3.77;;;19.50;99.90;;;;;;5061589;28;20183;-67
2023/08/14 07:12:32;;;;;;;5.70;5.20;;;19.60;99.90;;;;;;5055031;28;20894;-73
2023/08/14 07:15:00;;;;;;;8.87;3.60;;;19.60;99.90;;;;;;5073871;28;20405;-68
2023/08/14 07:17:26;;;;;;;5.53;2.60;;;19.70;99.90;;;;;;5073424;28;20458;-72
2023/08/14 07:19:52;;;;;;;6.27;3.13;;;19.80;99.90;;;;;;5074049;28;20885;-66
2023/08/14 07:22:18;;;;;;;8.87;3.53;;;19.90;99.90;;;;;;5073959;28;20404;-67
2023/08/14 07:24:44;;;;;;;6.07;3.40;;;19.90;99.90;;;;;;5072355;28;20559;-72
2023/08/14 07:27:09;;;;;;;5.03;2.90;;;20.00;99.90;;;;;;5071282;28;20220;-68
2023/08/14 07:29:35;;;;;;;4.57;3.73;;;20.10;99.90;;;;;;5055326;28;20476;-71
2023/08/14 07:32:01;;;;;;;5.90;3.83;;;20.20;99.90;;;;;;5052571;28;20171;-66
2023/08/14 07:34:26;;;;;;;6.40;3.60;;;20.30;95.90;;;;;;5053717;28;20201;-67
2023/08/14 07:36:52;;;;;;;6.00;4.27;;;20.40;95.90;;;;;;5062545;28;20183;-66
2023/08/14 07:39:18;;;;;;;5.23;4.73;;;20.50;95.90;;;;;;5071901;28;20547;-68
2023/08/14 07:41:43;;;;;;;4.90;3.13;;;20.60;95.90;;;;;;5072414;28;20227;-67
2023/08/14 07:44:09;;;;;;;6.40;3.30;;;20.60;95.90;;;;;;5073530;28;20196;-68
2023/08/14 07:46:35;;;;;;;5.77;3.60;;;20.70;91.50;;;;;;5072418;28;20170;-66
2023/08/14 07:49:00;;;;;;;6.60;4.73;;;20.80;86.80;;;;;;5073066;28;20316;-72
2023/08/14 07:51:26;;;;;;;5.30;4.17;;;20.90;76.70;;;;;;5073341;28;20631;-72
2023/08/14 07:53:53;;;;;;;5.70;3.97;;;20.90;63.60;;;;;;5069906;28;20193;-68
2023/08/14 07:56:18;;;;;;;7.90;3.90;;;20.90;47.00;;;;;;5070637;28;20581;-67
2023/08/14 07:58:44;;;;;;;6.60;3.80;;;21.00;40.30;;;;;;5066425;28;20482;-66
2023/08/14 08:01:10;;;;;;;4.07;3.67;;;21.10;23.70;;;;;;5073597;28;20170;-67
2023/08/14 08:03:35;;;;;;;4.93;3.33;;;21.10;15.80;;;;;;5073032;28;20531;-71
2023/08/14 08:06:01;;;;;;;5.67;3.13;;;21.10;4.40;;;;;;5067839;28;20174;-71
2023/08/14 08:08:27;;;;;;;8.50;2.80;;;21.10;1.00;;;;;;5069769;28;20190;-67
2023/08/14 08:10:53;;;;;;;5.23;3.40;;;21.20;1.00;;;;;;5068015;28;20189;-71
2023/08/14 08:13:18;;;;;;;4.20;3.20;;;21.30;1.00;;;;;;5061366;28;20224;-67
2023/08/14 08:15:44;;;;;;;3.87;3.40;;;21.40;1.00;;;;;;5062291;28;20183;-67
2023/08/14 08:18:10;;;;;;;4.57;3.30;;;21.40;1.00;;;;;;5052971;28;20274;-70
2023/08/14 08:20:36;;;;;;;7.13;3.00;;;21.50;1.00;;;;;;5055337;28;20175;-70
2023/08/14 08:23:02;;;;;;;7.07;3.50;;;21.50;1.00;;;;;;5054366;28;20566;-67
2023/08/14 08:25:27;;;;;;;4.57;2.77;;;21.50;1.00;;;;;;5051587;28;20171;-70
2023/08/14 08:27:53;;;;;;;4.30;3.17;;;21.50;1.00;;;;;;5052896;28;20210;-66
2023/08/14 08:30:19;;;;;;;8.23;3.00;;;21.60;1.00;;;;;;5053041;28;20205;-66
2023/08/14 08:32:44;;;;;;;3.40;2.60;;;21.70;1.00;;;;;;5052958;28;20183;-66
2023/08/14 08:35:10;;;;;;;4.70;3.10;;;21.90;1.00;;;;;;5056715;28;20190;-68
2023/08/14 08:37:36;;;;;;;4.30;3.00;;;22.00;1.00;;;;;;5063872;28;20209;-71
2023/08/14 08:40:04;;;;;;;7.83;3.30;;;22.10;1.00;;;;;;5072721;28;20162;-67
2023/08/14 08:42:30;;;;;;;3.10;2.53;;;22.30;1.00;;;;;;5072527;28;20162;-68
2023/08/14 08:45:02;;;;;;;7.53;3.30;;;22.40;1.00;;;;;;5054825;28;20439;-66
2023/08/14 08:47:29;;;;;;;3.50;3.13;;;22.40;1.00;;;;;;5052657;28;20194;-70
2023/08/14 08:49:55;;;;;;;7.00;3.13;;;22.50;1.00;;;;;;5052734;28;20397;-68
2023/08/14 08:52:21;;;;;;;6.93;3.13;;;22.70;1.00;;;;;;5052275;28;20844;-71
2023/08/14 08:54:49;;;;;;;8.43;3.77;;;22.80;1.00;;;;;;5052678;28;20436;-67
2023/08/14 08:57:16;;;;;;;5.23;3.20;;;23.00;1.00;;;;;;5051910;28;20425;-68
2023/08/14 08:59:43;;;;;;;5.93;3.00;;;22.90;1.00;;;;;;5052560;28;20452;-67
2023/08/14 09:02:09;;;;;;;4.07;2.80;;;23.00;1.00;;;;;;5056532;28;20444;-71
2023/08/14 09:04:34;;;;;;;6.30;3.23;;;23.10;1.00;;;;;;5072739;28;20449;-67
2023/08/14 09:07:00;;;;;;;5.93;2.90;;;23.20;1.00;;;;;;5069295;28;20245;-70
2023/08/14 09:09:26;;;;;;;8.73;3.63;;;23.40;1.00;;;;;;5072655;28;20684;-66
2023/08/14 09:11:51;;;;;;;6.87;3.00;;;23.60;1.00;;;;;;5072205;28;20185;-69
2023/08/14 09:14:17;;;;;;;3.33;2.23;;;23.70;1.00;;;;;;5072839;28;20218;-68
2023/08/14 09:16:46;;;;;;;6.73;2.60;;;23.80;1.00;;;;;;5072126;28;20177;-67
2023/08/14 09:19:14;;;;;;;3.87;2.90;;;23.90;1.00;;;;;;5075860;28;20193;-72
2023/08/14 09:21:43;;;;;;;5.30;2.93;;;24.00;1.00;;;;;;5073289;28;20416;-67
2023/08/14 09:24:10;;;;;;;4.90;2.93;;;24.10;1.00;;;;;;5076312;28;20400;-71
2023/08/14 09:26:36;;;;;;;12.93;3.50;;;24.20;1.00;;;;;;5075499;28;20432;-67
2023/08/14 09:29:02;;;;;;;6.27;3.10;;;24.20;1.00;;;;;;5076160;28;20489;-67
2023/08/14 09:31:31;;;;;;;4.67;2.40;;;24.20;1.00;;;;;;5076311;28;20175;-66
2023/08/14 09:33:57;;;;;;;4.53;2.73;;;24.20;1.00;;;;;;5074008;28;20784;-68
2023/08/14 09:36:22;;;;;;;4.73;3.10;;;24.30;1.00;;;;;;5074552;28;20454;-71
2023/08/14 09:38:51;;;;;;;4.10;2.93;;;24.40;1.00;;;;;;5073275;28;20206;-72
2023/08/14 09:41:19;;;;;;;5.57;3.60;;;24.30;1.00;;;;;;5076137;28;20168;-68
2023/08/14 09:43:45;;;;;;;6.10;3.10;;;24.40;1.00;;;;;;5076000;28;20491;-69
2023/08/14 09:46:12;;;;;;;6.00;2.93;;;24.40;1.00;;;;;;5075033;28;20487;-67
2023/08/14 09:48:42;;;;;;;4.87;3.00;;;24.40;1.00;;;;;;5074103;28;20213;-67
2023/08/14 09:51:14;;;;;;;4.20;3.80;;;24.60;1.00;;;;;;5065131;28;20429;-71
2023/08/14 09:53:52;;;;;;;3.47;3.17;;;24.70;1.00;;;;;;5067889;28;20447;-67
2023/08/14 09:56:19;;;;;;;5.50;3.30;;;24.70;1.00;;;;;;5074757;28;20404;-72
2023/08/14 09:58:47;;;;;;;4.33;2.60;;;24.90;1.00;;;;;;5075545;28;20496;-73
2023/08/14 10:01:16;;;;;;;4.13;2.73;;;25.10;1.00;;;;;;5075833;28;20401;-72
2023/08/14 10:03:42;;;;;;;6.53;2.70;;;25.40;1.00;;;;;;5075645;28;20465;-72
2023/08/14 10:06:11;;;;;;;3.73;2.43;;;25.80;1.00;;;;;;5073225;28;20420;-71
2023/08/14 10:08:39;;;;;;;4.10;2.60;;;26.00;1.00;;;;;;5072366;28;20434;-72
2023/08/14 10:11:07;;;;;;;3.87;3.10;;;26.10;1.00;;;;;;5074268;28;20166;-73
2023/08/14 10:13:38;;;;;;;5.90;2.50;;;26.20;1.00;;;;;;5075445;28;20404;-70
2023/08/14 10:16:09;;;;;;;4.13;2.53;;;26.30;1.00;;;;;;5072446;28;20435;-71
2023/08/14 10:18:39;;;;;;;8.10;2.80;;;26.40;1.00;;;;;;5054871;28;20590;-67
2023/08/14 10:21:09;;;;;;;6.70;2.97;;;26.60;1.00;;;;;;5054765;28;20428;-72
2023/08/14 10:23:37;;;;;;;3.10;2.50;;;26.50;1.00;;;;;;5062983;28;20441;-71
2023/08/14 10:26:05;;;;;;;6.37;2.60;;;26.30;1.00;;;;;;5074306;28;20443;-72
2023/08/14 10:28:32;;;;;;;5.07;2.50;;;26.20;1.00;;;;;;5074664;28;20494;-73
2023/08/14 10:30:59;;;;;;;4.47;2.63;;;25.90;1.00;;;;;;5073873;28;20397;-73
2023/08/14 10:33:27;;;;;;;4.43;2.60;;;25.80;1.00;;;;;;5075135;28;20428;-67
2023/08/14 10:35:55;;;;;;;4.23;2.80;;;25.70;1.00;;;;;;5074284;28;20397;-70
2023/08/14 10:38:22;;;;;;;3.47;2.00;;;25.70;1.00;;;;;;5069181;28;20544;-73
2023/08/14 10:41:04;;;;;;;3.60;2.57;;;25.60;1.00;;;;;;5061605;28;20940;-74
2023/08/14 10:43:30;;;;;;;3.43;2.03;;;25.80;1.00;;;;;;5054225;28;20741;-72
2023/08/14 10:45:56;;;;;;;3.73;2.70;;;26.00;1.00;;;;;;5054865;28;20500;-71
2023/08/14 10:48:22;;;;;;;3.87;2.23;;;26.20;1.00;;;;;;5054273;28;20598;-73
2023/08/14 10:50:56;;;;;;;3.10;2.43;;;26.60;1.00;;;;;;5054700;28;20562;-72
2023/08/14 10:53:23;;;;;;;5.30;1.93;;;27.20;1.00;;;;;;5060827;28;20440;-67
2023/08/14 10:55:48;;;;;;;4.60;2.50;;;27.80;1.00;;;;;;5073897;28;20888;-67
2023/08/14 10:58:33;;;;;;;5.30;3.00;;;28.10;1.00;;;;;;5073357;28;20448;-73
2023/08/14 11:01:03;;;;;;;4.70;2.90;;;28.00;1.00;;;;;;5069466;28;20166;-73
2023/08/14 11:03:32;;;;;;;5.40;2.90;;;27.60;1.00;;;;;;5054552;28;20405;-73
2023/08/14 11:05:58;;;;;;;3.50;2.43;;;27.00;1.00;;;;;;5052479;28;20739;-73
2023/08/14 11:08:27;;;;;;;6.83;3.50;;;26.50;99.90;;;;;;5067878;28;20460;-66
2023/08/14 11:10:52;;;;;;;3.40;2.70;;;26.10;99.90;;;;;;5074288;28;20265;-72
2023/08/14 11:13:18;;;;;;;4.60;2.60;;;25.90;99.90;;;;;;5072981;28;20507;-73
2023/08/14 11:15:44;;;;;;;3.57;2.90;;;25.80;99.90;;;;;;5072332;28;20200;-67
2023/08/14 11:18:10;;;;;;;7.50;2.40;;;25.80;99.90;;;;;;5074095;28;20202;-67
2023/08/14 11:20:38;;;;;;;5.80;3.30;;;26.00;1.00;;;;;;5070514;28;20205;-67
2023/08/14 11:23:05;;;;;;;3.10;2.10;;;26.50;1.00;;;;;;5072205;28;20427;-67
2023/08/14 11:25:33;;;;;;;7.93;2.50;;;26.90;1.00;;;;;;5071557;28;20423;-73
2023/08/14 11:27:59;;;;;;;5.70;2.77;;;27.10;1.00;;;;;;5073832;28;20930;-73
2023/08/14 11:30:30;;;;;;;8.30;2.67;;;26.80;1.00;;;;;;5073983;28;20400;-73
2023/08/14 11:32:56;;;;;;;2.63;2.43;;;26.60;99.90;;;;;;5073952;28;20171;-66
2023/08/14 11:35:22;;;;;;;4.03;2.50;;;27.00;1.00;;;;;;5072939;28;20520;-71
2023/08/14 11:37:47;;;;;;;5.33;2.73;;;27.30;1.00;;;;;;5071272;28;20456;-68
2023/08/14 11:40:17;;;;;;;5.70;2.57;;;27.60;1.00;;;;;;5072803;28;20255;-73
2023/08/14 11:42:44;;;;;;;5.73;2.40;;;27.70;1.00;;;;;;5073775;28;20208;-67
2023/08/14 11:45:10;;;;;;;6.20;3.60;;;27.80;1.00;;;;;;5072564;28;20479;-69
2023/08/14 11:47:49;;;;;;;5.47;2.70;;;27.70;99.90;;;;;;5073142;28;20512;-68
2023/08/14 11:50:16;;;;;;;6.13;2.70;;;27.90;99.90;;;;;;5073666;28;20162;-73
2023/08/14 11:52:43;;;;;;;4.10;2.70;;;28.30;99.90;;;;;;5056578;28;20433;-67
2023/08/14 11:55:10;;;;;;;3.40;1.97;;;28.70;99.90;;;;;;5052642;28;20437;-67
2023/08/14 11:57:37;;;;;;;3.37;2.53;;;29.00;1.00;;;;;;5052982;28;20464;-73
2023/08/14 12:00:10;;;;;;;4.20;2.63;;;29.30;99.90;;;;;;5052532;28;20401;-72
2023/08/14 12:02:38;;;;;;;3.53;2.20;;;29.10;99.90;;;;;;5053533;28;20404;-67
2023/08/14 12:05:04;;;;;;;3.30;2.10;;;28.90;99.90;;;;;;5052500;28;20900;-68
2023/08/14 12:07:31;;;;;;;3.10;2.10;;;28.70;99.90;;;;;;5072234;28;20770;-73
2023/08/14 12:09:57;;;;;;;4.63;2.30;;;28.30;99.90;;;;;;5065632;28;20817;-66
2023/08/14 12:12:25;;;;;;;7.23;2.47;;;27.80;99.90;;;;;;5053550;28;20936;-66
2023/08/14 12:14:52;;;;;;;5.50;2.60;;;27.50;99.90;;;;;;5052618;28;20451;-73
2023/08/14 12:17:19;;;;;;;4.07;2.43;;;27.30;99.90;;;;;;5061316;28;20452;-72
2023/08/14 12:19:52;;;;;;;5.93;2.90;;;27.80;99.90;;;;;;5062531;28;20762;-68
2023/08/14 12:22:23;;;;;;;6.70;2.40;;;28.80;99.90;;;;;;5073206;28;20423;-67
2023/08/14 12:24:49;;;;;;;5.70;2.70;;;29.10;99.90;;;;;;5072505;28;20977;-71
2023/08/14 12:27:25;;;;;;;8.10;2.57;;;29.50;99.90;;;;;;5058781;28;20476;-73
2023/08/14 12:29:52;;;;;;;3.00;2.37;;;30.20;99.90;;;;;;5068999;28;20428;-73
2023/08/14 12:32:18;;;;;;;5.63;2.60;;;30.80;99.90;;;;;;5057147;28;20914;-72
2023/08/14 12:34:44;;;;;;;4.03;2.10;;;30.90;99.90;;;;;;5057383;28;20948;-73
2023/08/14 12:37:16;;;;;;;2.50;2.30;;;30.90;99.90;;;;;;5054585;28;20433;-70
2023/08/14 12:39:43;;;;;;;6.10;2.80;;;30.90;99.90;;;;;;5071833;28;20185;-73
2023/08/14 12:42:12;;;;;;;3.20;2.63;;;31.20;99.90;;;;;;5072287;28;20488;-71
2023/08/14 12:44:38;;;;;;;3.33;2.03;;;31.20;99.90;;;;;;5062303;28;20421;-70
2023/08/14 12:47:04;;;;;;;3.23;2.00;;;30.90;99.90;;;;;;5063705;28;20456;-66
2023/08/14 12:49:31;;;;;;;5.53;2.60;;;30.50;99.90;;;;;;5062874;28;20187;-67